createdAt,value
2022-11-15T00:01:19.008Z,101978.75
2022-11-15T00:03:47.355Z,101978.06
2022-11-15T00:06:15.219Z,101995.44
2022-11-15T00:08:43.060Z,101997.38
2022-11-15T00:11:13.273Z,101993.03
2022-11-15T00:13:41.230Z,101994.03
2022-11-15T00:16:11.693Z,101989.84
2022-11-15T00:18:40.372Z,102004.75
2022-11-15T00:21:11.359Z,102006.56
2022-11-15T00:23:39.446Z,102015.28
2022-11-15T00:26:07.726Z,102020.59
2022-11-15T00:28:35.607Z,102017.22
2022-11-15T00:31:04.102Z,102011.31
2022-11-15T00:33:34.228Z,102008.75
2022-11-15T00:36:02.479Z,102012.53
2022-11-15T00:38:33.410Z,102012.50
2022-11-15T00:41:06.252Z,102015.13
2022-11-15T00:43:36.859Z,102016.06
2022-11-15T00:46:04.892Z,102018.50
2022-11-15T00:48:34.206Z,102016.88
2022-11-15T00:51:02.141Z,102019.63
2022-11-15T00:53:30.618Z,102022.34
2022-11-15T00:55:58.767Z,102019.00
2022-11-15T00:58:26.704Z,102023.38
2022-11-15T01:00:54.634Z,102019.16
2022-11-15T01:03:22.604Z,102026.22
2022-11-15T01:05:51.853Z,102030.81
2022-11-15T01:08:19.702Z,102034.31
2022-11-15T01:10:50.033Z,102033.72
2022-11-15T01:13:17.685Z,102037.47
2022-11-15T01:15:45.827Z,102033.97
2022-11-15T01:18:13.804Z,102037.28
2022-11-15T01:20:42.998Z,102026.88
2022-11-15T01:23:12.489Z,102025.91
2022-11-15T01:25:40.357Z,102021.59
2022-11-15T01:28:08.593Z,102023.28
2022-11-15T01:30:38.030Z,102019.78
2022-11-15T01:33:05.914Z,102021.59
2022-11-15T01:35:33.904Z,102018.81
2022-11-15T01:38:01.764Z,102025.75
2022-11-15T01:40:31.116Z,102030.97
2022-11-15T01:42:59.013Z,102032.88
2022-11-15T01:45:27.217Z,102031.22
2022-11-15T01:47:57.496Z,102044.38
2022-11-15T01:50:28.037Z,102040.38
2022-11-15T01:52:55.719Z,102037.88
2022-11-15T01:55:26.966Z,102035.22
2022-11-15T01:58:00.137Z,102033.53
2022-11-15T02:00:28.179Z,102040.44
2022-11-15T02:02:56.167Z,102045.69
2022-11-15T02:05:24.310Z,102040.69
2022-11-15T02:07:52.740Z,102058.09
2022-11-15T02:10:23.367Z,102059.00
2022-11-15T02:12:52.661Z,102060.06
2022-11-15T02:15:22.485Z,102066.16
2022-11-15T02:18:04.768Z,102063.69
2022-11-15T02:20:46.527Z,102061.25
2022-11-15T02:23:47.773Z,102067.41
2022-11-15T02:26:53.892Z,102076.19
2022-11-15T02:29:37.554Z,102069.25
2022-11-15T02:32:16.787Z,102058.16
2022-11-15T02:34:53.473Z,102053.97
2022-11-15T02:37:29.060Z,102053.16
2022-11-15T02:40:04.311Z,102051.41
2022-11-15T02:42:53.029Z,102059.97
2022-11-15T02:45:26.434Z,102066.03
2022-11-15T02:47:59.358Z,102069.50
2022-11-15T02:50:31.298Z,102066.84
2022-11-15T02:52:59.284Z,102074.63
2022-11-15T02:55:29.202Z,102065.84
2022-11-15T02:58:11.542Z,102076.19
2022-11-15T03:00:49.752Z,102075.34
2022-11-15T03:03:37.677Z,102070.94
2022-11-15T03:06:16.335Z,102071.81
2022-11-15T03:08:57.307Z,102063.06
2022-11-15T03:11:25.744Z,102067.31
2022-11-15T03:13:58.972Z,102059.53
2022-11-15T03:16:32.028Z,102056.94
2022-11-15T03:19:06.678Z,102064.63
2022-11-15T03:21:36.949Z,102062.94
2022-11-15T03:24:07.458Z,102067.59
2022-11-15T03:26:36.158Z,102063.25
2022-11-15T03:29:08.597Z,102074.41
2022-11-15T03:31:51.657Z,102071.72
2022-11-15T03:34:29.468Z,102075.06
2022-11-15T03:36:57.649Z,102076.09
2022-11-15T03:39:26.046Z,102073.41
2022-11-15T03:42:04.990Z,102070.88
2022-11-15T03:44:42.533Z,102069.97
2022-11-15T03:47:14.845Z,102067.31
2022-11-15T03:49:48.562Z,102072.59
2022-11-15T03:52:20.255Z,102064.81
2022-11-15T03:54:53.243Z,102070.91
2022-11-15T03:57:21.187Z,102065.72
2022-11-15T03:59:49.062Z,102069.97
2022-11-15T04:02:17.003Z,102064.66
2022-11-15T04:04:48.558Z,102062.06
2022-11-15T04:07:16.465Z,102057.75
2022-11-15T04:09:58.352Z,102051.63
2022-11-15T04:12:32.655Z,102056.72
2022-11-15T04:15:11.187Z,102053.25
2022-11-15T04:17:41.241Z,102061.84
2022-11-15T04:20:30.493Z,102061.78
2022-11-15T04:23:16.981Z,102063.44
2022-11-15T04:25:46.010Z,102071.19
2022-11-15T04:28:14.182Z,102073.72
2022-11-15T04:30:42.088Z,102069.41
2022-11-15T04:33:10.163Z,102076.28
2022-11-15T04:35:39.523Z,102074.50
2022-11-15T04:38:08.389Z,102085.72
2022-11-15T04:40:36.755Z,102086.59
2022-11-15T04:43:05.076Z,102091.63
2022-11-15T04:45:32.947Z,102097.59
2022-11-15T04:48:00.799Z,102097.53
2022-11-15T04:50:28.976Z,102099.13
2022-11-15T04:52:58.214Z,102096.44
2022-11-15T04:55:28.965Z,102098.94
2022-11-15T04:58:01.658Z,102095.41
2022-11-15T05:00:30.671Z,102090.16
2022-11-15T05:03:16.227Z,102086.56
2022-11-15T05:05:44.261Z,102090.84
2022-11-15T05:08:13.475Z,102084.66
2022-11-15T05:10:41.309Z,102088.91
2022-11-15T05:13:09.187Z,102090.56
2022-11-15T05:15:37.044Z,102095.75
2022-11-15T05:18:05.080Z,102095.66
2022-11-15T05:20:33.057Z,102093.00
2022-11-15T05:23:04.087Z,102087.81
2022-11-15T05:25:33.520Z,102098.22
2022-11-15T05:28:01.395Z,102098.09
2022-11-15T05:30:29.242Z,102098.00
2022-11-15T05:32:57.527Z,102094.44
2022-11-15T05:35:33.009Z,102104.66
2022-11-15T05:38:00.936Z,102116.69
2022-11-15T05:40:29.590Z,102114.13
2022-11-15T05:42:59.583Z,102120.09
2022-11-15T05:45:27.517Z,102118.41
2022-11-15T05:47:58.207Z,102121.88
2022-11-15T05:50:26.343Z,102117.59
2022-11-15T05:52:54.351Z,102132.34
2022-11-15T05:55:22.620Z,102130.59
2022-11-15T05:57:50.602Z,102134.97
2022-11-15T06:00:20.667Z,102135.97
2022-11-15T06:02:48.519Z,102148.97
2022-11-15T06:05:16.422Z,102157.63
2022-11-15T06:07:45.242Z,102153.38
2022-11-15T06:10:13.414Z,102154.97
2022-11-15T06:12:41.494Z,102155.03
2022-11-15T06:15:10.519Z,102173.28
2022-11-15T06:17:39.950Z,102161.97
2022-11-15T06:20:11.827Z,102163.63
2022-11-15T06:22:42.522Z,102156.72
2022-11-15T06:25:10.867Z,102167.13
2022-11-15T06:27:38.852Z,102167.06
2022-11-15T06:30:08.024Z,102163.69
2022-11-15T06:32:35.902Z,102160.19
2022-11-15T06:35:06.161Z,102163.69
2022-11-15T06:37:35.749Z,102154.97
2022-11-15T06:40:03.636Z,102157.66
2022-11-15T06:42:31.497Z,102154.31
2022-11-15T06:44:59.417Z,102162.06
2022-11-15T06:47:27.406Z,102165.56
2022-11-15T06:49:55.298Z,102166.47
2022-11-15T06:52:24.545Z,102168.25
2022-11-15T06:54:52.434Z,102176.84
2022-11-15T06:57:20.330Z,102174.28
2022-11-15T06:59:48.335Z,102175.25
2022-11-15T07:02:16.221Z,102172.69
2022-11-15T07:04:44.147Z,102178.84
2022-11-15T07:07:12.121Z,102169.38
2022-11-15T07:09:41.478Z,102187.72
2022-11-15T07:12:09.385Z,102188.63
2022-11-15T07:14:37.258Z,102193.81
2022-11-15T07:17:06.060Z,102199.94
2022-11-15T07:19:34.134Z,102194.75
2022-11-15T07:22:02.008Z,102196.38
2022-11-15T07:24:30.125Z,102193.91
2022-11-15T07:26:59.467Z,102204.19
2022-11-15T07:29:27.588Z,102204.22
2022-11-15T07:31:55.790Z,102207.78
2022-11-15T07:34:24.748Z,102214.63
2022-11-15T07:36:52.658Z,102211.25
2022-11-15T07:39:20.865Z,102219.00
2022-11-15T07:41:49.204Z,102212.03
2022-11-15T07:44:18.433Z,102214.53
2022-11-15T07:46:46.267Z,102217.03
2022-11-15T07:49:14.163Z,102222.06
2022-11-15T07:51:41.986Z,102211.66
2022-11-15T07:54:09.973Z,102209.00
2022-11-15T07:56:37.886Z,102209.00
2022-11-15T07:59:05.946Z,102207.31
2022-11-15T08:01:35.196Z,102215.16
2022-11-15T08:04:03.142Z,102214.34
2022-11-15T08:06:31.583Z,102216.75
2022-11-15T08:08:59.445Z,102214.16
2022-11-15T08:11:27.312Z,102215.84
2022-11-15T08:13:55.190Z,102219.28
2022-11-15T08:16:23.318Z,102214.06
2022-11-15T08:18:52.788Z,102228.69
2022-11-15T08:21:22.345Z,102220.03
2022-11-15T08:23:50.466Z,102223.50
2022-11-15T08:26:18.357Z,102232.13
2022-11-15T08:28:46.287Z,102222.59
2022-11-15T09:12:03.177Z,102259.81
2022-11-15T09:14:31.390Z,102264.75
2022-11-15T09:16:59.394Z,102266.22
2022-11-15T09:19:27.748Z,102268.50
2022-11-15T09:21:55.649Z,102264.00
2022-11-15T09:24:23.543Z,102264.69
2022-11-15T09:26:52.472Z,102266.34
2022-11-15T09:29:21.751Z,102267.94
2022-11-15T09:31:50.511Z,102272.22
2022-11-15T09:34:18.396Z,102266.84
2022-11-15T09:36:46.283Z,102266.09
2022-11-15T09:39:14.215Z,102275.41
2022-11-15T09:42:23.738Z,102268.41
2022-11-15T09:45:06.658Z,102269.25
2022-11-15T09:48:02.219Z,102271.06
2022-11-15T09:50:37.214Z,102274.22
2022-11-15T09:53:05.602Z,102266.44
2022-11-15T09:55:41.442Z,102263.00
2022-11-15T09:58:21.509Z,102268.22
2022-11-15T10:00:54.882Z,102264.91
2022-11-15T10:03:29.441Z,102268.31
2022-11-15T10:06:02.791Z,102274.25
2022-11-15T10:08:42.704Z,102267.31
2022-11-15T10:14:04.328Z,102272.19
2022-11-15T10:17:03.692Z,102273.00
2022-11-15T10:19:40.644Z,102272.94
2022-11-15T10:22:23.786Z,102260.75
2022-11-15T10:24:54.784Z,102270.28
2022-11-15T10:27:22.745Z,102271.97
2022-11-15T10:29:51.909Z,102268.38
2022-11-15T10:32:25.865Z,102270.13
2022-11-15T10:34:53.792Z,102281.47
2022-11-15T10:37:31.437Z,102270.19
2022-11-15T10:40:06.394Z,102270.97
2022-11-15T10:42:34.394Z,102262.38
2022-11-15T10:45:02.384Z,102276.28
2022-11-15T10:47:38.900Z,102269.31
2022-11-15T10:50:26.985Z,102279.75
2022-11-15T10:52:55.502Z,102267.69
2022-11-15T10:55:28.065Z,102280.66
2022-11-15T10:57:57.482Z,102272.78
2022-11-15T11:00:37.682Z,102274.47
2022-11-15T11:03:22.702Z,102283.94
2022-11-15T11:05:51.056Z,102277.78
2022-11-15T11:08:25.214Z,102283.00
2022-11-15T11:11:02.604Z,102279.59
2022-11-15T11:13:34.225Z,102278.78
2022-11-15T11:16:20.161Z,102270.97
2022-11-15T11:18:59.981Z,102270.22
2022-11-15T11:21:40.150Z,102281.44
2022-11-15T11:24:12.517Z,102274.72
2022-11-15T11:26:51.714Z,102277.19
2022-11-15T11:29:35.952Z,102276.38
2022-11-15T11:32:15.994Z,102276.31
2022-11-15T11:34:58.031Z,102282.44
2022-11-15T11:37:32.969Z,102264.88
2022-11-15T11:40:15.803Z,102270.88
2022-11-15T11:43:00.366Z,102272.59
2022-11-15T11:45:51.035Z,102282.09
2022-11-15T11:48:34.935Z,102277.03
2022-11-15T11:51:12.446Z,102275.19
2022-11-15T11:53:47.971Z,102282.16
2022-11-15T11:56:24.826Z,102276.16
2022-11-15T11:58:55.945Z,102283.97
2022-11-15T12:01:26.955Z,102296.31
2022-11-15T12:03:59.656Z,102291.22
2022-11-15T12:06:34.507Z,102286.06
2022-11-15T12:09:09.289Z,102279.16
2022-11-15T12:11:44.479Z,102283.66
2022-11-15T12:14:27.386Z,102283.66
2022-11-15T12:16:55.626Z,102274.94
2022-11-15T12:19:23.522Z,102275.03
2022-11-15T12:21:58.762Z,102277.66
2022-11-15T12:24:30.590Z,102279.38
2022-11-15T12:27:03.808Z,102277.53
2022-11-15T12:29:38.321Z,102263.59
2022-11-15T12:32:08.370Z,102273.13
2022-11-15T12:34:46.102Z,102272.28
2022-11-15T12:37:51.728Z,102276.03
2022-11-15T12:40:23.243Z,102269.91
2022-11-15T12:43:03.768Z,102267.31
2022-11-15T12:45:34.310Z,102270.06
2022-11-15T12:48:58.726Z,102283.22
2022-11-15T12:52:06.995Z,102269.38
2022-11-15T12:55:34.391Z,102273.09
2022-11-15T12:58:31.481Z,102268.75
2022-11-15T13:00:59.540Z,102268.75
2022-11-15T13:03:29.594Z,102262.63
2022-11-15T13:06:27.150Z,102257.63
2022-11-15T13:08:55.051Z,102264.50
2022-11-15T13:11:49.432Z,102262.72
2022-11-15T13:14:47.782Z,102263.59
2022-11-15T13:17:38.737Z,102259.41
2022-11-15T13:20:25.440Z,102260.19
2022-11-15T13:22:55.563Z,102259.25
2022-11-15T13:25:50.931Z,102263.53
2022-11-15T13:28:27.447Z,102264.44
2022-11-15T13:31:00.517Z,102266.97
2022-11-15T13:33:36.221Z,102255.66
2022-11-15T13:36:08.750Z,102267.75
2022-11-15T13:38:40.395Z,102269.44
2022-11-15T13:41:22.102Z,102273.91
2022-11-15T13:43:51.073Z,102282.50
2022-11-15T13:46:22.248Z,102284.25
2022-11-15T13:48:55.215Z,102278.28
2022-11-15T13:51:29.177Z,102282.72
2022-11-15T13:54:00.255Z,102287.88
2022-11-15T13:56:30.418Z,102289.56
2022-11-15T13:58:58.896Z,102287.97
2022-11-15T14:01:34.046Z,102294.91
2022-11-15T14:04:03.553Z,102291.44
2022-11-15T14:06:33.118Z,102292.31
2022-11-15T14:09:18.018Z,102292.53
2022-11-15T14:11:53.273Z,102287.34
2022-11-15T14:14:23.979Z,102287.28
2022-11-15T14:16:55.197Z,102294.19
2022-11-15T14:19:40.802Z,102289.13
2022-11-15T14:22:17.968Z,102284.09
2022-11-15T14:24:48.550Z,102290.06
2022-11-15T14:27:25.621Z,102299.69
2022-11-15T14:29:54.257Z,102302.13
2022-11-15T14:32:26.029Z,102304.81
2022-11-15T14:34:57.556Z,102304.03
2022-11-15T14:37:27.210Z,102304.03
2022-11-15T14:39:55.593Z,102310.06
2022-11-15T14:42:24.942Z,102307.47
2022-11-15T14:44:53.615Z,102314.44
2022-11-15T14:47:23.102Z,102302.34
2022-11-15T14:49:51.083Z,102300.59
2022-11-15T14:52:31.913Z,102293.75
2022-11-15T14:55:02.440Z,102305.00
2022-11-15T14:57:30.516Z,102317.16
2022-11-15T14:59:59.090Z,102305.09
2022-11-15T15:02:29.595Z,102311.09
2022-11-15T15:05:02.040Z,102298.97
2022-11-15T15:07:30.296Z,102303.31
2022-11-15T15:10:24.586Z,102303.25
2022-11-15T15:12:46.138Z,102310.19
2022-11-15T15:15:18.717Z,102298.09
2022-11-15T15:17:47.958Z,102303.31
2022-11-15T15:20:16.090Z,102302.41
2022-11-15T15:22:44.365Z,102299.84
2022-11-15T15:25:24.525Z,102307.59
2022-11-15T15:27:52.590Z,102311.91
2022-11-15T15:30:20.882Z,102316.31
2022-11-15T15:32:50.303Z,102306.00
2022-11-15T15:35:19.524Z,102305.91
2022-11-15T15:37:48.686Z,102313.69
2022-11-15T15:40:21.015Z,102303.31
2022-11-15T15:42:49.714Z,102304.16
2022-11-15T15:45:19.233Z,102301.53
2022-11-15T15:47:48.107Z,102306.75
2022-11-15T15:50:28.639Z,102314.59
2022-11-15T15:52:58.458Z,102311.91
2022-11-15T15:55:26.785Z,102313.75
2022-11-15T15:57:55.419Z,102315.47
2022-11-15T16:00:25.791Z,102322.41
2022-11-15T16:02:53.959Z,102329.34
2022-11-15T16:05:22.089Z,102321.50
2022-11-15T16:07:51.603Z,102332.84
2022-11-15T16:10:26.120Z,102326.75
2022-11-15T16:12:55.351Z,102330.16
2022-11-15T16:15:24.573Z,102324.97
2022-11-15T16:17:54.298Z,102324.09
2022-11-15T16:20:31.926Z,102326.75
2022-11-15T16:23:07.259Z,102337.25
2022-11-15T16:25:40.655Z,102336.25
2022-11-15T16:28:18.651Z,102338.06
2022-11-15T16:30:46.540Z,102328.53
2022-11-15T16:33:14.418Z,102322.38
2022-11-15T16:35:42.485Z,102333.69
2022-11-15T16:38:16.476Z,102332.91
2022-11-15T16:40:44.507Z,102335.50
2022-11-15T16:43:12.704Z,102331.19
2022-11-15T16:45:41.042Z,102333.78
2022-11-15T16:48:17.179Z,102338.16
2022-11-15T16:50:46.406Z,102350.31
2022-11-15T16:53:16.089Z,102345.16
2022-11-15T16:55:44.008Z,102349.47
2022-11-15T16:58:11.894Z,102346.81
2022-11-15T17:00:40.148Z,102346.88
2022-11-15T17:05:22.380Z,102352.97
2022-11-15T17:07:54.102Z,102353.91
2022-11-15T17:10:27.189Z,102349.47
2022-11-15T17:12:57.106Z,102350.31
2022-11-15T17:15:25.557Z,102351.19
2022-11-15T17:17:54.250Z,102351.22
2022-11-15T17:20:25.761Z,102348.69
2022-11-15T17:22:53.844Z,102349.47
2022-11-15T17:25:21.789Z,102352.03
2022-11-15T17:27:49.940Z,102346.00
2022-11-15T17:30:18.778Z,102355.44
2022-11-15T17:32:47.151Z,102352.03
2022-11-15T17:35:15.946Z,102347.72
2022-11-15T17:37:45.448Z,102350.38
2022-11-15T17:40:13.649Z,102345.25
2022-11-15T17:42:43.214Z,102353.97
2022-11-15T17:45:12.439Z,102343.66
2022-11-15T17:47:40.706Z,102351.41
2022-11-15T17:50:09.615Z,102343.66
2022-11-15T17:52:37.855Z,102346.28
2022-11-15T17:55:08.377Z,102349.72
2022-11-15T17:57:36.215Z,102350.63
2022-11-15T18:00:06.274Z,102348.06
2022-11-15T18:02:34.078Z,102353.34
2022-11-15T18:05:02.067Z,102352.47
2022-11-15T18:07:30.002Z,102349.06
2022-11-15T18:09:57.997Z,102346.50
2022-11-15T18:12:27.333Z,102349.19
2022-11-15T18:14:55.220Z,102350.00
2022-11-15T18:17:23.868Z,102355.25
2022-11-15T18:19:51.716Z,102357.81
2022-11-15T18:22:20.482Z,102350.09
2022-11-15T18:24:48.750Z,102351.72
2022-11-15T18:27:16.624Z,102354.38
2022-11-15T18:29:46.026Z,102356.13
2022-11-15T18:32:15.320Z,102348.38
2022-11-15T18:34:43.186Z,102353.47
2022-11-15T18:37:11.169Z,102354.56
2022-11-15T18:39:39.043Z,102357.06
2022-11-15T18:42:06.990Z,102350.13
2022-11-15T18:44:35.611Z,102355.38
2022-11-15T18:47:04.914Z,102347.66
2022-11-15T18:49:32.792Z,102349.41
2022-11-15T18:52:00.688Z,102349.34
2022-11-15T18:54:31.459Z,102351.06
2022-11-15T18:56:59.868Z,102353.59
2022-11-15T18:59:29.047Z,102358.81
2022-11-15T19:01:57.012Z,102358.75
2022-11-15T19:04:26.420Z,102352.78
2022-11-15T19:06:55.210Z,102357.97
2022-11-15T19:09:27.224Z,102357.94
2022-11-15T19:11:55.119Z,102360.53
2022-11-15T19:14:25.332Z,102363.13
2022-11-15T19:16:54.717Z,102362.28
2022-11-15T19:19:24.767Z,102361.44
2022-11-15T19:21:54.257Z,102353.66
2022-11-15T19:24:22.334Z,102365.69
2022-11-15T19:26:50.843Z,102377.00
2022-11-15T19:29:18.902Z,102373.56
2022-11-15T19:31:48.599Z,102383.06
2022-11-15T19:34:16.576Z,102384.81
2022-11-15T19:36:45.924Z,102385.66
2022-11-15T19:39:18.098Z,102391.81
2022-11-15T19:41:46.578Z,102384.84
2022-11-15T19:44:15.031Z,102385.66
2022-11-15T19:46:44.332Z,102385.66
2022-11-15T19:49:12.398Z,102385.66
2022-11-15T19:51:42.664Z,102381.41
2022-11-15T19:54:11.128Z,102380.50
2022-11-15T19:56:40.904Z,102386.53
2022-11-15T19:59:09.061Z,102378.81
2022-11-15T20:01:39.251Z,102375.25
2022-11-15T20:04:10.313Z,102386.53
2022-11-15T20:06:40.215Z,102386.53
2022-11-15T20:09:08.725Z,102377.91
2022-11-15T20:11:38.144Z,102370.06
2022-11-15T20:14:10.887Z,102376.22
2022-11-15T20:16:38.868Z,102377.03
2022-11-15T20:19:07.336Z,102379.56
2022-11-15T20:21:35.610Z,102377.88
2022-11-15T20:24:03.643Z,102381.38
2022-11-15T20:26:32.299Z,102387.41
2022-11-15T20:29:03.201Z,102378.78
2022-11-15T20:31:33.571Z,102384.06
2022-11-15T20:34:01.305Z,102386.78
2022-11-15T20:36:29.743Z,102377.94
2022-11-15T20:38:59.259Z,102381.50
2022-11-15T20:41:27.994Z,102374.59
2022-11-15T20:43:56.385Z,102376.25
2022-11-15T20:46:24.477Z,102382.38
2022-11-15T20:48:53.701Z,102382.38
2022-11-15T20:51:21.623Z,102391.88
2022-11-15T20:53:49.979Z,102394.53
2022-11-15T20:56:20.125Z,102393.63
2022-11-15T20:58:50.545Z,102390.13
2022-11-15T21:01:23.529Z,102395.31
2022-11-15T21:03:53.898Z,102395.34
2022-11-15T21:06:22.100Z,102391.09
2022-11-15T21:09:07.784Z,102387.56
2022-11-15T21:11:53.428Z,102392.88
2022-11-15T21:14:21.741Z,102385.13
2022-11-15T21:16:49.625Z,102389.41
2022-11-15T21:19:21.601Z,102392.81
2022-11-15T21:21:53.678Z,102390.25
2022-11-15T21:24:21.819Z,102393.75
2022-11-15T21:26:49.701Z,102384.22
2022-11-15T21:29:18.118Z,102389.50
2022-11-15T21:31:46.094Z,102392.88
2022-11-15T21:34:14.243Z,102391.19
2022-11-15T21:36:43.497Z,102396.31
2022-11-15T21:39:11.487Z,102397.25
2022-11-15T21:41:39.539Z,102401.53
2022-11-15T21:44:07.487Z,102401.50
2022-11-15T21:46:37.194Z,102398.91
2022-11-15T21:49:06.363Z,102394.56
2022-11-15T21:51:35.095Z,102399.81
2022-11-15T21:54:04.768Z,102401.50
2022-11-15T21:56:33.000Z,102399.75
2022-11-15T21:59:01.089Z,102396.31
2022-11-15T22:01:46.913Z,102399.81
2022-11-15T22:04:15.882Z,102399.84
2022-11-15T22:06:43.815Z,102404.13
2022-11-15T22:09:13.282Z,102401.59
2022-11-15T22:11:41.173Z,102399.03
2022-11-15T22:14:09.835Z,102389.44
2022-11-15T22:16:42.726Z,102396.38
2022-11-15T22:19:10.739Z,102402.44
2022-11-15T22:21:40.113Z,102405.03
2022-11-15T22:24:08.684Z,102402.53
2022-11-15T22:26:38.125Z,102400.75
2022-11-15T22:29:06.160Z,102403.31
2022-11-15T22:31:34.509Z,102403.34
2022-11-15T22:34:02.645Z,102406.88
2022-11-15T22:36:46.945Z,102405.13
2022-11-15T22:39:19.303Z,102411.16
2022-11-15T22:41:48.724Z,102407.69
2022-11-15T22:44:16.932Z,102406.81
2022-11-15T22:46:44.930Z,102407.69
2022-11-15T22:49:13.198Z,102405.91
2022-11-15T22:51:41.244Z,102406.78
2022-11-15T22:54:09.657Z,102415.41
2022-11-15T22:56:37.902Z,102411.06
2022-11-15T22:59:07.312Z,102409.34
2022-11-15T23:01:35.303Z,102420.69
2022-11-15T23:04:03.384Z,102414.56
2022-11-15T23:06:31.477Z,102414.56
2022-11-15T23:08:59.465Z,102411.09
2022-11-15T23:11:45.064Z,102408.56
2022-11-15T23:14:14.533Z,102407.72
2022-11-15T23:16:42.528Z,102410.41
2022-11-15T23:19:12.439Z,102405.16
2022-11-15T23:22:00.151Z,102407.81
2022-11-15T23:24:28.689Z,102414.75
2022-11-15T23:26:58.836Z,102412.22
2022-11-15T23:29:29.550Z,102403.56
2022-11-15T23:32:15.855Z,102409.56
2022-11-15T23:34:45.665Z,102407.94
2022-11-15T23:37:16.327Z,102414.91
2022-11-15T23:39:44.350Z,102408.75
2022-11-15T23:42:19.737Z,102408.84
2022-11-15T23:44:50.814Z,102412.38
2022-11-15T23:47:19.629Z,102401.94
2022-11-15T23:49:47.841Z,102408.03
2022-11-15T23:52:16.661Z,102395.09
2022-11-15T23:54:44.877Z,102389.81
2022-11-15T23:57:12.991Z,102391.56
2022-11-15T23:59:43.451Z,102395.91
